Glacier Park International Airport
KGPI : now visible

Airfield :











YOU CAN JOIN US ON...

 
LOGIN :

Register | Disclaimer

   EN    FR    IT 

 









Legend :    VFR   Marginal VFR   IFR   Intensive IFR   Very Intensive IFR
Visi :
Ceiling :
>= 8 km
>= 3000ft
5 to 8 km
1000 to 3000 ft
1500m to 5 km
500 to 1000 ft
800 to 1500m
200 to 500 ft
< 800m
< 200 ft
Symbols :   Thunderstorms  Fog  Heavy snow  Heavy precipitations  Wind > 20 kt






- Airport Elevation : 2977 ft
- IATA code : FCA


KGPI - Glacier Park International

CURRENT METAR :
  • 291406Z AUTO 00000KT 2SM -SN BR OVC003 M01/M01 A3020 RMK AO2 SNB1358 P0000 T10061011 TSNO

EXPIRED METARs :
  • 291355Z AUTO 00000KT 4SM BR OVC003 M01/M01 A3020 RMK AO2 UPB30E39 SLP254 P0000 T10061011 TSNO
  • 291317Z AUTO 00000KT 3SM BR OVC004 M01/M01 A3019 RMK AO2 T10061011 TSNO
  • 291255Z AUTO 16003KT 4SM BR OVC005 00/M01 A3019 RMK AO2 SLP251 T00001011 TSNO
  • 291205Z AUTO 10003KT 4SM BR OVC005 00/M01 A3018 RMK AO2 T00001011 TSNO
  • 291155Z AUTO 00000KT 3SM BR OVC004 00/M01 A3018 RMK AO2 UPB17E20SNB20E31 SLP247 P0000 60000 70018 T00001011 10000 21011 51009 TSNO
  • 291141Z AUTO 00000KT 3SM BR OVC005 00/M01 A3018 RMK AO2 UPB17E20SNB20E31 P0000 T00001011 TSNO
  • 291134Z AUTO 03003KT 1 1/2SM BR OVC005 00/M01 A3018 RMK AO2 UPB17E20SNB20E31 P0000 T00001011 TSNO

TAF KGPI
Valid from the 29 at 12:00 until the 30 at 12:00 UTC


291120Z 2912/3012 00000KT 1SM BR OVC005
TEMPO 2912/2914 1/2SM FG BKN004
FM291700 19002KT 4SM BR OVC007
FM291900 19003KT 5SM BR OVC015
FM292100 17005KT 6SM BR OVC025
FM300200 18005KT 5SM -SN OVC020



MET'MAP, your aeronautical weather chart ! - Copyright ORBIFLY December 2007 - Disclaimer

ORBIFLY MET'MAP TEAM :

Programming & Development : Alexandra Zaïnal
Concept & original design : Baudouin d'Aumeries
Assistance for programming : Marc-Olivier Méhu
Technical & hardware support : Manuel Goepfert

Contact : metmap@orbifly.com




SOURCES & CREDITS :

   NOAA       Earth
Advisory